Time;durP1;ratioP1;P1;durP2;ratioP2;P2;SDS_P1;SDS_P2;PMS_P1;PMS_P2;Temp;Humidity;BMP_temperature;BMP_pressure;BME280_temperature;BME280_humidity;BME280_pressure;Samples;Min_cycle;Max_cycle;Signal;HPM_P1;HPM_P2
2023/09/09 00:01:57;;;;;;;17.88;15.13;;;;;;;;;;5053138;28;20049;-59
2023/09/09 00:04:23;;;;;;;17.00;14.27;;;;;;;;;;5043849;28;20048;-59
2023/09/09 00:06:50;;;;;;;17.50;14.70;;;;;;;;;;5053481;28;20055;-59
2023/09/09 00:09:16;;;;;;;17.80;14.63;;;;;;;;;;5053504;28;20461;-58
2023/09/09 00:11:44;;;;;;;17.02;14.20;;;;;;;;;;5053147;28;20045;-55
2023/09/09 00:14:11;;;;;;;18.25;14.63;;;;;;;;;;5052750;28;20040;-57
2023/09/09 00:16:38;;;;;;;18.50;13.93;;;;;;;;;;5052914;28;20055;-59
2023/09/09 00:19:06;;;;;;;17.80;14.35;;;;;;;;;;5053086;28;20075;-59
2023/09/09 00:21:32;;;;;;;18.10;14.70;;;;;;;;;;5052926;28;20051;-59
2023/09/09 00:23:59;;;;;;;19.17;14.10;;;;;;;;;;5052567;28;20044;-56
2023/09/09 00:26:28;;;;;;;17.63;13.98;;;;;;;;;;5052832;28;20482;-54
2023/09/09 00:28:57;;;;;;;18.70;14.73;;;;;;;;;;5052856;28;20060;-57
2023/09/09 00:31:24;;;;;;;18.03;13.90;;;;;;;;;;5053021;28;20044;-56
2023/09/09 00:33:51;;;;;;;15.95;14.05;;;;;;;;;;5052503;28;20047;-57
2023/09/09 00:36:17;;;;;;;18.67;14.60;;;;;;;;;;5052920;28;20470;-54
2023/09/09 00:38:44;;;;;;;19.02;14.90;;;;;;;;;;5052349;28;20049;-57
2023/09/09 00:41:13;;;;;;;16.98;15.00;;;;;;;;;;5052588;28;20141;-58
2023/09/09 00:43:39;;;;;;;19.42;15.75;;;;;;;;;;5052132;28;20123;-57
2023/09/09 00:46:08;;;;;;;20.13;15.95;;;;;;;;;;5052298;28;20083;-56
2023/09/09 00:48:35;;;;;;;21.50;16.15;;;;;;;;;;5051986;28;20051;-58
2023/09/09 00:51:02;;;;;;;20.02;15.20;;;;;;;;;;5053955;28;20056;-57
2023/09/09 00:53:28;;;;;;;17.23;15.05;;;;;;;;;;5050046;28;20136;-55
2023/09/09 00:55:55;;;;;;;18.90;15.20;;;;;;;;;;5060569;22;20047;-59
2023/09/09 00:58:23;;;;;;;18.23;15.15;;;;;;;;;;5052348;28;20494;-59
2023/09/09 01:00:50;;;;;;;20.67;15.30;;;;;;;;;;5049978;28;20398;-59
2023/09/09 01:03:18;;;;;;;19.92;16.25;;;;;;;;;;5032405;28;20480;-57
2023/09/09 01:05:45;;;;;;;19.10;15.93;;;;;;;;;;5032489;28;20092;-60
2023/09/09 01:08:12;;;;;;;20.23;16.88;;;;;;;;;;5032625;28;20406;-60
2023/09/09 01:10:39;;;;;;;18.60;15.15;;;;;;;;;;5032057;28;20045;-60
2023/09/09 01:13:05;;;;;;;18.65;15.38;;;;;;;;;;5032435;28;20399;-59
2023/09/09 01:15:32;;;;;;;18.40;15.43;;;;;;;;;;5032358;28;20494;-60
2023/09/09 01:18:00;;;;;;;19.13;15.52;;;;;;;;;;5032221;28;20509;-60
2023/09/09 01:20:31;;;;;;;18.73;15.57;;;;;;;;;;5032487;28;20049;-60
2023/09/09 01:22:59;;;;;;;18.98;15.43;;;;;;;;;;5032486;28;20519;-57
2023/09/09 01:25:26;;;;;;;18.23;15.38;;;;;;;;;;5032224;28;20132;-60
2023/09/09 01:27:52;;;;;;;18.55;15.27;;;;;;;;;;5032133;28;20046;-60
2023/09/09 01:30:19;;;;;;;19.40;15.90;;;;;;;;;;5031989;28;20041;-60
2023/09/09 01:32:46;;;;;;;16.65;14.20;;;;;;;;;;5032241;28;20049;-60
2023/09/09 01:35:12;;;;;;;20.10;15.40;;;;;;;;;;5032099;28;20049;-60
2023/09/09 01:37:39;;;;;;;17.58;15.57;;;;;;;;;;5032148;28;20045;-60
2023/09/09 01:40:12;;;;;;;18.08;14.93;;;;;;;;;;5031976;28;20049;-59
2023/09/09 01:42:40;;;;;;;19.25;15.45;;;;;;;;;;5032005;28;20052;-59
2023/09/09 01:45:08;;;;;;;17.17;14.48;;;;;;;;;;5032193;28;20455;-59
2023/09/09 01:47:34;;;;;;;19.08;15.35;;;;;;;;;;5031729;28;20064;-60
2023/09/09 01:50:01;;;;;;;19.50;15.32;;;;;;;;;;5012848;28;20049;-59
2023/09/09 01:52:28;;;;;;;20.85;15.77;;;;;;;;;;5012255;28;20809;-60
2023/09/09 01:54:55;;;;;;;21.35;17.88;;;;;;;;;;5012332;28;20054;-60
2023/09/09 01:57:26;;;;;;;20.20;16.65;;;;;;;;;;5011332;28;20136;-59
2023/09/09 01:59:53;;;;;;;17.50;14.90;;;;;;;;;;5012169;28;20081;-59
2023/09/09 02:02:20;;;;;;;18.42;15.15;;;;;;;;;;5012147;28;20136;-60
2023/09/09 02:04:46;;;;;;;20.48;16.25;;;;;;;;;;5012298;28;20064;-59
2023/09/09 02:07:13;;;;;;;17.88;15.55;;;;;;;;;;5011829;28;20054;-59
2023/09/09 02:09:41;;;;;;;18.95;15.32;;;;;;;;;;5011924;28;20478;-60
2023/09/09 02:12:08;;;;;;;18.17;16.20;;;;;;;;;;5011958;28;20446;-60
2023/09/09 02:14:36;;;;;;;20.95;15.00;;;;;;;;;;5011828;28;20049;-60
2023/09/09 02:17:03;;;;;;;18.95;15.10;;;;;;;;;;5011860;28;20081;-59
2023/09/09 02:19:30;;;;;;;18.95;15.15;;;;;;;;;;5024395;28;20128;-61
2023/09/09 02:21:57;;;;;;;19.73;15.65;;;;;;;;;;5031620;28;20054;-60
2023/09/09 02:24:24;;;;;;;21.92;16.65;;;;;;;;;;5031742;28;20546;-60
2023/09/09 02:26:51;;;;;;;18.65;16.48;;;;;;;;;;5031596;28;20052;-61
2023/09/09 02:29:18;;;;;;;19.70;15.80;;;;;;;;;;5031608;28;20430;-61
2023/09/09 02:31:45;;;;;;;19.17;15.23;;;;;;;;;;5031565;28;20281;-60
2023/09/09 02:34:12;;;;;;;19.95;16.05;;;;;;;;;;5031355;28;20052;-61
2023/09/09 02:36:45;;;;;;;17.92;15.20;;;;;;;;;;5031733;28;20514;-60
2023/09/09 02:39:11;;;;;;;19.50;15.73;;;;;;;;;;5031596;28;20522;-61
2023/09/09 02:41:38;;;;;;;20.83;14.82;;;;;;;;;;5031609;28;20558;-61
2023/09/09 02:44:05;;;;;;;21.20;15.68;;;;;;;;;;5031360;28;20049;-61
2023/09/09 02:46:32;;;;;;;19.67;16.05;;;;;;;;;;5031565;28;20049;-61
2023/09/09 02:49:00;;;;;;;20.02;16.20;;;;;;;;;;5031415;28;20136;-61
2023/09/09 02:51:27;;;;;;;19.58;15.88;;;;;;;;;;5031256;28;20051;-60
2023/09/09 02:53:54;;;;;;;21.05;15.57;;;;;;;;;;5031488;28;20049;-61
2023/09/09 02:56:20;;;;;;;19.70;16.50;;;;;;;;;;5031816;28;20053;-61
2023/09/09 02:58:47;;;;;;;19.20;15.65;;;;;;;;;;5031189;28;20045;-61
2023/09/09 03:01:14;;;;;;;19.48;15.32;;;;;;;;;;5031191;28;20335;-61
2023/09/09 03:03:40;;;;;;;19.98;15.85;;;;;;;;;;5031334;28;20053;-61
2023/09/09 03:06:11;;;;;;;21.50;15.55;;;;;;;;;;5031525;28;20103;-61
2023/09/09 03:08:37;;;;;;;18.50;14.88;;;;;;;;;;5032167;28;20060;-58
2023/09/09 03:11:04;;;;;;;19.05;15.45;;;;;;;;;;5034694;28;20462;-57
2023/09/09 03:13:31;;;;;;;18.88;15.63;;;;;;;;;;5034805;28;20045;-59
2023/09/09 03:15:57;;;;;;;19.73;14.90;;;;;;;;;;5034893;28;20052;-59
2023/09/09 03:18:24;;;;;;;17.30;14.27;;;;;;;;;;5034901;28;20410;-59
2023/09/09 03:20:50;;;;;;;18.75;14.75;;;;;;;;;;5034268;28;20080;-59
2023/09/09 03:23:18;;;;;;;18.17;14.23;;;;;;;;;;5034202;28;20506;-60
2023/09/09 03:25:45;;;;;;;17.90;14.63;;;;;;;;;;5034718;28;20706;-59
2023/09/09 03:28:12;;;;;;;20.27;14.98;;;;;;;;;;5034603;28;20562;-59
2023/09/09 03:30:54;;;;;;;17.42;14.43;;;;;;;;;;5034347;28;20056;-59
2023/09/09 03:33:20;;;;;;;17.00;13.77;;;;;;;;;;5034435;28;20046;-59
2023/09/09 03:35:47;;;;;;;16.65;13.93;;;;;;;;;;5034377;28;20046;-59
2023/09/09 03:38:14;;;;;;;16.83;14.45;;;;;;;;;;5034121;28;20045;-59
2023/09/09 03:40:42;;;;;;;17.38;13.93;;;;;;;;;;5034203;28;20053;-60
2023/09/09 03:43:09;;;;;;;20.05;14.57;;;;;;;;;;5034394;28;20053;-59
2023/09/09 03:45:36;;;;;;;16.95;14.00;;;;;;;;;;5034342;28;20072;-60
2023/09/09 03:48:04;;;;;;;18.45;14.38;;;;;;;;;;5033946;28;20058;-60
2023/09/09 03:50:30;;;;;;;17.27;13.80;;;;;;;;;;5033752;28;20050;-60
2023/09/09 03:52:57;;;;;;;18.30;14.85;;;;;;;;;;5034046;28;20152;-59
2023/09/09 03:55:24;;;;;;;18.17;14.13;;;;;;;;;;5034020;28;20500;-60
2023/09/09 03:57:52;;;;;;;20.30;14.90;;;;;;;;;;5034234;28;20041;-59
2023/09/09 04:00:19;;;;;;;18.25;13.80;;;;;;;;;;5033756;28;20073;-60
2023/09/09 04:02:46;;;;;;;19.15;14.07;;;;;;;;;;5034030;28;20120;-60
2023/09/09 04:05:12;;;;;;;17.75;13.85;;;;;;;;;;5033955;28;20053;-60
2023/09/09 04:07:43;;;;;;;19.58;14.10;;;;;;;;;;5033772;28;20049;-60
2023/09/09 04:10:10;;;;;;;19.83;14.65;;;;;;;;;;5033484;28;20046;-60
2023/09/09 04:12:37;;;;;;;16.48;14.25;;;;;;;;;;5033346;28;20096;-59
2023/09/09 04:15:07;;;;;;;19.13;13.75;;;;;;;;;;5033895;28;20052;-59
2023/09/09 04:17:33;;;;;;;16.63;14.27;;;;;;;;;;5033588;28;20447;-60
2023/09/09 04:20:01;;;;;;;16.50;14.45;;;;;;;;;;5033412;28;20358;-59
2023/09/09 04:22:27;;;;;;;17.02;14.75;;;;;;;;;;5033241;28;20051;-60
2023/09/09 04:24:54;;;;;;;18.10;15.65;;;;;;;;;;5033171;28;20132;-60
2023/09/09 04:27:21;;;;;;;16.60;14.10;;;;;;;;;;5033062;28;20041;-60
2023/09/09 04:29:48;;;;;;;16.30;13.75;;;;;;;;;;5033133;28;20132;-59
2023/09/09 04:32:15;;;;;;;19.50;15.10;;;;;;;;;;5032962;28;20481;-60
2023/09/09 04:34:42;;;;;;;15.77;14.07;;;;;;;;;;5033467;28;20060;-60
2023/09/09 04:37:09;;;;;;;15.98;14.27;;;;;;;;;;5033333;28;20450;-59
2023/09/09 04:39:35;;;;;;;19.35;14.40;;;;;;;;;;5033367;28;20409;-60
2023/09/09 04:42:02;;;;;;;17.80;14.68;;;;;;;;;;5033131;28;20132;-59
2023/09/09 04:44:29;;;;;;;18.15;14.75;;;;;;;;;;5033163;28;20387;-61
2023/09/09 04:46:55;;;;;;;19.10;15.30;;;;;;;;;;5033165;28;20050;-60
2023/09/09 04:49:24;;;;;;;19.90;15.63;;;;;;;;;;5033125;28;20046;-60
2023/09/09 04:51:51;;;;;;;19.25;15.55;;;;;;;;;;5032880;28;20053;-61
2023/09/09 04:54:18;;;;;;;18.90;15.35;;;;;;;;;;5032815;28;20045;-59
2023/09/09 04:56:46;;;;;;;17.75;15.80;;;;;;;;;;5032416;28;20049;-59
2023/09/09 04:59:13;;;;;;;17.10;14.93;;;;;;;;;;5032926;28;20061;-60
2023/09/09 05:01:39;;;;;;;17.77;14.93;;;;;;;;;;5017655;28;20046;-58
2023/09/09 05:04:07;;;;;;;18.77;15.05;;;;;;;;;;5013062;28;20046;-59
2023/09/09 05:06:35;;;;;;;17.13;14.73;;;;;;;;;;5012682;28;20060;-59
2023/09/09 05:09:02;;;;;;;19.33;15.35;;;;;;;;;;5012972;28;20042;-59
2023/09/09 05:11:28;;;;;;;20.95;16.10;;;;;;;;;;5012630;28;20050;-59
2023/09/09 05:13:55;;;;;;;20.23;15.45;;;;;;;;;;5013136;28;20046;-59
2023/09/09 05:16:22;;;;;;;23.77;17.67;;;;;;;;;;5025921;28;20557;-59
2023/09/09 05:18:48;;;;;;;20.17;15.93;;;;;;;;;;5032251;28;20055;-57
2023/09/09 05:21:15;;;;;;;18.85;15.18;;;;;;;;;;5032103;28;20045;-58
2023/09/09 05:23:43;;;;;;;18.15;15.77;;;;;;;;;;5032521;28;20050;-59
2023/09/09 05:26:09;;;;;;;20.02;16.15;;;;;;;;;;5032087;28;20052;-59
2023/09/09 05:28:36;;;;;;;17.25;15.43;;;;;;;;;;5032712;28;20048;-59
2023/09/09 05:31:06;;;;;;;18.55;15.68;;;;;;;;;;5031599;28;20049;-59
2023/09/09 05:33:32;;;;;;;18.02;15.13;;;;;;;;;;5032341;28;20050;-60
2023/09/09 05:35:59;;;;;;;20.77;16.25;;;;;;;;;;5032014;28;20490;-59
2023/09/09 05:38:26;;;;;;;18.60;15.65;;;;;;;;;;5032385;28;20046;-60
2023/09/09 05:40:54;;;;;;;21.02;15.57;;;;;;;;;;5031900;28;20140;-57
2023/09/09 05:43:21;;;;;;;22.45;17.70;;;;;;;;;;5031914;28;20095;-60
2023/09/09 05:45:48;;;;;;;20.15;16.42;;;;;;;;;;5032092;28;20045;-59
2023/09/09 05:48:15;;;;;;;17.92;15.75;;;;;;;;;;5031902;28;20071;-59
2023/09/09 05:50:41;;;;;;;16.98;14.77;;;;;;;;;;5031925;28;20132;-59
2023/09/09 05:53:08;;;;;;;17.40;15.25;;;;;;;;;;5031642;28;20041;-59
2023/09/09 05:55:35;;;;;;;19.05;15.20;;;;;;;;;;5031579;28;20136;-60
2023/09/09 05:58:03;;;;;;;20.33;16.35;;;;;;;;;;5031870;28;20054;-59
2023/09/09 06:00:29;;;;;;;20.88;17.70;;;;;;;;;;5031818;28;20071;-61
2023/09/09 06:02:56;;;;;;;22.48;17.52;;;;;;;;;;5031827;28;20509;-60
2023/09/09 06:05:23;;;;;;;18.92;16.40;;;;;;;;;;5031972;28;20051;-60
2023/09/09 06:07:49;;;;;;;19.92;15.98;;;;;;;;;;5031520;28;20041;-61
2023/09/09 06:10:16;;;;;;;21.27;16.58;;;;;;;;;;5031939;28;20411;-61
2023/09/09 06:12:43;;;;;;;18.75;16.55;;;;;;;;;;5031916;28;20113;-63
2023/09/09 06:15:11;;;;;;;20.70;18.00;;;;;;;;;;5031791;28;20140;-64
2023/09/09 06:17:39;;;;;;;20.38;16.65;;;;;;;;;;5032027;28;20056;-63
2023/09/09 06:20:07;;;;;;;21.08;17.65;;;;;;;;;;5032149;28;20434;-63
2023/09/09 06:22:34;;;;;;;20.83;17.75;;;;;;;;;;5031925;28;20052;-63
2023/09/09 06:25:01;;;;;;;22.73;18.42;;;;;;;;;;5030948;28;20049;-63
2023/09/09 06:27:28;;;;;;;20.85;18.15;;;;;;;;;;5031409;28;20046;-64
2023/09/09 06:29:54;;;;;;;22.20;18.50;;;;;;;;;;5031762;28;20045;-63
2023/09/09 06:32:22;;;;;;;24.00;18.45;;;;;;;;;;5031562;28;20058;-63
2023/09/09 06:34:49;;;;;;;21.27;17.90;;;;;;;;;;5031468;28;20140;-62
2023/09/09 06:37:16;;;;;;;22.33;19.35;;;;;;;;;;5031279;28;20069;-63
2023/09/09 06:39:42;;;;;;;23.65;19.90;;;;;;;;;;5031723;28;20494;-63
2023/09/09 06:42:09;;;;;;;22.88;19.75;;;;;;;;;;5032331;28;20049;-63
2023/09/09 06:44:36;;;;;;;26.27;20.40;;;;;;;;;;5035290;28;20049;-63
2023/09/09 06:47:02;;;;;;;24.02;20.33;;;;;;;;;;5035539;28;20494;-63
2023/09/09 06:49:30;;;;;;;24.05;19.17;;;;;;;;;;5035470;28;20566;-63
2023/09/09 06:51:57;;;;;;;23.65;20.88;;;;;;;;;;5035328;28;20088;-63
2023/09/09 06:54:23;;;;;;;24.10;19.55;;;;;;;;;;5035260;28;20087;-64
2023/09/09 06:56:50;;;;;;;22.55;19.17;;;;;;;;;;5060777;23;20100;-58
2023/09/09 06:59:17;;;;;;;21.45;18.70;;;;;;;;;;5043640;28;20124;-60
2023/09/09 07:01:44;;;;;;;22.45;18.80;;;;;;;;;;5046958;28;20045;-60
2023/09/09 07:04:10;;;;;;;22.20;19.77;;;;;;;;;;5042901;28;20486;-59
2023/09/09 07:06:38;;;;;;;21.98;18.13;;;;;;;;;;5036755;28;20055;-61
2023/09/09 07:09:05;;;;;;;20.50;18.27;;;;;;;;;;5034651;28;20081;-60
2023/09/09 07:11:31;;;;;;;21.17;18.85;;;;;;;;;;5034977;28;20149;-60
2023/09/09 07:13:58;;;;;;;20.50;18.08;;;;;;;;;;5043134;28;20051;-60
2023/09/09 07:16:24;;;;;;;22.45;17.85;;;;;;;;;;5054666;28;20421;-58
2023/09/09 07:18:51;;;;;;;23.48;18.75;;;;;;;;;;5044707;28;20041;-60
2023/09/09 07:21:18;;;;;;;21.10;18.63;;;;;;;;;;5049779;28;20044;-59
2023/09/09 07:23:46;;;;;;;23.67;18.50;;;;;;;;;;5054839;28;20137;-58
2023/09/09 07:26:13;;;;;;;22.20;18.80;;;;;;;;;;5060861;28;20418;-58
2023/09/09 07:28:40;;;;;;;21.38;18.88;;;;;;;;;;5065865;28;20127;-60
2023/09/09 07:31:07;;;;;;;23.88;19.63;;;;;;;;;;5059877;28;20047;-58
2023/09/09 07:33:33;;;;;;;25.38;19.77;;;;;;;;;;5062226;28;20049;-57
2023/09/09 07:36:00;;;;;;;24.23;19.30;;;;;;;;;;5054538;28;20220;-57
2023/09/09 07:38:27;;;;;;;21.35;17.92;;;;;;;;;;5059626;28;20051;-60
2023/09/09 07:40:59;;;;;;;23.27;20.38;;;;;;;;;;5061861;28;20048;-60
2023/09/09 07:43:25;;;;;;;22.38;19.13;;;;;;;;;;5057002;28;20041;-60
2023/09/09 07:45:53;;;;;;;23.95;20.42;;;;;;;;;;5054178;28;20124;-58
2023/09/09 07:48:20;;;;;;;22.00;18.70;;;;;;;;;;5055535;28;20045;-60
2023/09/09 07:50:51;;;;;;;21.42;18.25;;;;;;;;;;5057591;28;20046;-61
2023/09/09 07:53:18;;;;;;;22.10;19.38;;;;;;;;;;5064472;28;20131;-60
2023/09/09 07:55:47;;;;;;;23.83;20.58;;;;;;;;;;5061964;28;20048;-60
2023/09/09 07:58:15;;;;;;;21.27;18.70;;;;;;;;;;5068087;28;20080;-60
2023/09/09 08:00:42;;;;;;;21.13;18.80;;;;;;;;;;5063438;28;20048;-59
2023/09/09 08:03:10;;;;;;;20.42;17.88;;;;;;;;;;5062448;28;20060;-59
2023/09/09 08:05:37;;;;;;;21.48;18.67;;;;;;;;;;5054379;28;20140;-59
2023/09/09 08:08:05;;;;;;;21.38;18.77;;;;;;;;;;5061377;28;20418;-62
2023/09/09 08:10:32;;;;;;;23.20;20.40;;;;;;;;;;5039319;28;20409;-60
2023/09/09 08:12:58;;;;;;;21.50;18.45;;;;;;;;;;5038895;28;20104;-59
2023/09/09 08:15:27;;;;;;;20.33;18.13;;;;;;;;;;5042221;28;20044;-59
2023/09/09 08:17:53;;;;;;;19.73;17.52;;;;;;;;;;5048162;28;20118;-60
2023/09/09 08:20:20;;;;;;;24.02;19.40;;;;;;;;;;5041151;28;20080;-59
2023/09/09 08:22:47;;;;;;;20.98;18.40;;;;;;;;;;5042962;28;20103;-60
2023/09/09 08:25:14;;;;;;;22.73;17.33;;;;;;;;;;5047882;28;20044;-61
2023/09/09 08:27:40;;;;;;;21.65;19.35;;;;;;;;;;5045784;28;20140;-60
2023/09/09 08:30:08;;;;;;;21.27;18.38;;;;;;;;;;5039897;28;20048;-60
2023/09/09 08:32:36;;;;;;;25.40;20.40;;;;;;;;;;5042731;28;20494;-60
2023/09/09 08:35:03;;;;;;;20.90;18.08;;;;;;;;;;5055872;28;20041;-60
2023/09/09 08:37:30;;;;;;;19.73;17.58;;;;;;;;;;5058644;28;20230;-60
2023/09/09 08:39:57;;;;;;;20.30;18.15;;;;;;;;;;5061597;28;20104;-60
2023/09/09 08:42:36;;;;;;;21.60;18.30;;;;;;;;;;5061354;28;20442;-59
2023/09/09 08:45:09;;;;;;;18.58;15.68;;;;;;;;;;5061117;28;20047;-60
2023/09/09 08:47:39;;;;;;;20.20;17.20;;;;;;;;;;5072977;28;20076;-60
2023/09/09 08:50:06;;;;;;;;;;;;;;;;;;5046398;28;20143;-61
2023/09/09 08:52:32;;;;;;;20.52;18.17;;;;;;;;;;5063023;28;19920;-61
2023/09/09 08:54:59;;;;;;;21.60;19.38;;;;;;;;;;5046427;28;20055;-66
2023/09/09 08:57:28;;;;;;;20.58;18.38;;;;;;;;;;5057177;28;20086;-61
2023/09/09 08:59:57;;;;;;;24.70;20.40;;;;;;;;;;5044764;28;20051;-62
2023/09/09 09:02:24;;;;;;;20.50;17.65;;;;;;;;;;5046178;28;20525;-59
2023/09/09 09:04:53;;;;;;;22.17;19.05;;;;;;;;;;5050736;28;20044;-59
2023/09/09 09:07:21;;;;;;;20.30;18.05;;;;;;;;;;5054742;28;20406;-67
2023/09/09 09:09:48;;;;;;;19.25;17.25;;;;;;;;;;5044929;28;20044;-69
2023/09/09 09:12:15;;;;;;;20.60;18.27;;;;;;;;;;5047284;28;20087;-67
2023/09/09 09:14:46;;;;;;;18.60;16.85;;;;;;;;;;5048123;28;20386;-68
2023/09/09 09:17:15;;;;;;;21.52;19.20;;;;;;;;;;5044357;28;20512;-58
2023/09/09 09:19:42;;;;;;;19.60;17.50;;;;;;;;;;5059741;28;20132;-61
2023/09/09 09:22:13;;;;;;;21.38;19.10;;;;;;;;;;5072082;28;20040;-57
2023/09/09 09:24:43;;;;;;;20.42;18.23;;;;;;;;;;5059956;28;20514;-59
2023/09/09 09:27:11;;;;;;;19.70;17.40;;;;;;;;;;5047521;28;20037;-60
2023/09/09 09:29:41;;;;;;;18.23;16.35;;;;;;;;;;5050345;28;20414;-61
2023/09/09 09:32:10;;;;;;;18.63;16.63;;;;;;;;;;5053466;28;20626;-61
2023/09/09 09:34:37;;;;;;;17.85;16.02;;;;;;;;;;5052484;28;20132;-59
2023/09/09 09:37:11;;;;;;;18.00;16.10;;;;;;;;;;5051764;28;20131;-61
2023/09/09 09:39:38;;;;;;;17.40;15.60;;;;;;;;;;5047606;28;20045;-60
2023/09/09 09:42:06;;;;;;;17.77;15.90;;;;;;;;;;5041061;28;20052;-60
2023/09/09 09:44:32;;;;;;;16.30;14.68;;;;;;;;;;5051899;28;20498;-61
2023/09/09 09:47:01;;;;;;;17.98;16.23;;;;;;;;;;5036070;28;20049;-59
2023/09/09 09:49:39;;;;;;;18.23;16.37;;;;;;;;;;5032025;28;20475;-58
2023/09/09 09:52:06;;;;;;;17.27;15.48;;;;;;;;;;5031814;28;20049;-59
2023/09/09 09:54:35;;;;;;;18.13;16.33;;;;;;;;;;5031951;28;20095;-58
2023/09/09 09:57:04;;;;;;;17.52;15.75;;;;;;;;;;5031872;28;20049;-55
2023/09/09 09:59:32;;;;;;;16.45;14.85;;;;;;;;;;5040517;28;20203;-56
2023/09/09 10:01:59;;;;;;;16.35;14.57;;;;;;;;;;5051570;28;20049;-58
2023/09/09 10:04:28;;;;;;;16.70;14.32;;;;;;;;;;5051714;28;20439;-58
2023/09/09 10:06:59;;;;;;;16.25;13.55;;;;;;;;;;5038583;28;20045;-59
2023/09/09 10:09:34;;;;;;;14.68;13.18;;;;;;;;;;5032718;28;20049;-57
2023/09/09 10:12:06;;;;;;;16.50;14.77;;;;;;;;;;5031604;28;20050;-58
2023/09/09 10:14:36;;;;;;;15.25;13.65;;;;;;;;;;5032627;28;20380;-59
2023/09/09 10:17:06;;;;;;;15.57;13.98;;;;;;;;;;5032214;28;20056;-59
2023/09/09 10:19:34;;;;;;;15.57;12.27;;;;;;;;;;5038740;28;20056;-62
2023/09/09 10:22:03;;;;;;;16.08;14.35;;;;;;;;;;5065870;28;20079;-61
2023/09/09 10:24:30;;;;;;;15.00;13.45;;;;;;;;;;5059037;28;20048;-60
2023/09/09 10:26:59;;;;;;;15.18;13.63;;;;;;;;;;5075319;28;20376;-61
2023/09/09 10:29:28;;;;;;;15.73;14.03;;;;;;;;;;5075375;28;20049;-59
2023/09/09 10:31:58;;;;;;;14.90;13.43;;;;;;;;;;5067030;28;20051;-58
2023/09/09 10:34:25;;;;;;;;;;;;;;;;;;5055457;28;20399;-57
2023/09/09 10:36:58;;;;;;;14.80;13.25;;;;;;;;;;5055600;28;20015;-54
2023/09/09 10:39:25;;;;;;;13.40;12.00;;;;;;;;;;5048109;28;20148;-56
2023/09/09 10:41:53;;;;;;;13.07;11.77;;;;;;;;;;5052326;28;20045;-60
2023/09/09 10:44:20;;;;;;;13.23;11.93;;;;;;;;;;5051555;28;20063;-60
2023/09/09 10:46:56;;;;;;;12.50;11.30;;;;;;;;;;5046115;28;20135;-59
2023/09/09 10:49:27;;;;;;;13.88;12.48;;;;;;;;;;5059608;28;20409;-60
2023/09/09 10:51:55;;;;;;;14.38;12.98;;;;;;;;;;5047569;28;20053;-59
2023/09/09 10:54:23;;;;;;;13.82;12.52;;;;;;;;;;5048780;28;20049;-58
2023/09/09 10:56:52;;;;;;;12.95;11.75;;;;;;;;;;5049260;28;20510;-59
2023/09/09 10:59:20;;;;;;;14.05;12.73;;;;;;;;;;5053640;28;20140;-60
2023/09/09 11:02:08;;;;;;;12.30;11.00;;;;;;;;;;5055569;28;20140;-59
2023/09/09 11:04:37;;;;;;;13.30;11.93;;;;;;;;;;5056061;28;20048;-59
2023/09/09 11:07:09;;;;;;;13.48;11.93;;;;;;;;;;5061322;28;20048;-60
2023/09/09 11:09:36;;;;;;;13.20;11.80;;;;;;;;;;5051430;28;20427;-59
2023/09/09 11:12:12;;;;;;;14.02;11.95;;;;;;;;;;5053555;28;20123;-58
2023/09/09 11:14:42;;;;;;;11.65;10.55;;;;;;;;;;5064368;28;20051;-59
2023/09/09 11:17:13;;;;;;;13.25;11.50;;;;;;;;;;5063010;28;20049;-59
2023/09/09 11:19:41;;;;;;;12.73;11.43;;;;;;;;;;5059729;28;20075;-59
2023/09/09 11:22:10;;;;;;;13.45;12.05;;;;;;;;;;5044135;28;20072;-59
2023/09/09 11:24:37;;;;;;;15.15;12.45;;;;;;;;;;5054238;28;20490;-59
2023/09/09 11:27:06;;;;;;;12.38;11.18;;;;;;;;;;5047537;28;20045;-60
2023/09/09 11:29:33;;;;;;;13.05;11.75;;;;;;;;;;5049946;28;20051;-60
2023/09/09 11:32:00;;;;;;;17.17;13.43;;;;;;;;;;5058621;28;20041;-59
2023/09/09 11:34:32;;;;;;;18.38;12.95;;;;;;;;;;5049395;28;20045;-58
2023/09/09 11:37:00;;;;;;;13.77;11.55;;;;;;;;;;5048750;28;20124;-59
2023/09/09 11:39:27;;;;;;;12.30;11.07;;;;;;;;;;5057312;28;20136;-60
2023/09/09 11:41:54;;;;;;;11.85;10.75;;;;;;;;;;5051126;28;20114;-60
2023/09/09 11:44:20;;;;;;;12.88;11.52;;;;;;;;;;5058253;28;20542;-58
2023/09/09 11:46:49;;;;;;;12.57;10.90;;;;;;;;;;5046374;28;20041;-60
2023/09/09 11:49:17;;;;;;;11.57;10.38;;;;;;;;;;5058962;28;20052;-60
2023/09/09 11:51:45;;;;;;;11.43;9.70;;;;;;;;;;5050579;28;20051;-60
2023/09/09 11:54:18;;;;;;;11.88;9.93;;;;;;;;;;5050547;28;20049;-60
2023/09/09 11:56:45;;;;;;;10.65;9.55;;;;;;;;;;5050490;28;20052;-59
2023/09/09 11:59:11;;;;;;;12.13;10.90;;;;;;;;;;5050523;28;20131;-59
2023/09/09 12:01:42;;;;;;;12.30;11.10;;;;;;;;;;5050210;28;20051;-59
2023/09/09 12:04:09;;;;;;;10.85;9.70;;;;;;;;;;5050513;28;20418;-60
2023/09/09 12:06:36;;;;;;;11.60;9.55;;;;;;;;;;5050606;28;20057;-60
2023/09/09 12:09:06;;;;;;;14.30;10.57;;;;;;;;;;5052104;28;20040;-60
2023/09/09 12:11:34;;;;;;;11.15;9.95;;;;;;;;;;5060009;28;20098;-59
2023/09/09 12:14:01;;;;;;;10.55;9.50;;;;;;;;;;5059567;28;20044;-60
2023/09/09 12:16:29;;;;;;;11.98;10.45;;;;;;;;;;5051658;28;20111;-58
2023/09/09 12:18:56;;;;;;;10.82;9.40;;;;;;;;;;5052406;28;20710;-59
2023/09/09 12:21:23;;;;;;;11.60;10.30;;;;;;;;;;5060554;28;20188;-59
2023/09/09 12:23:50;;;;;;;11.07;9.93;;;;;;;;;;5047220;28;20135;-58
2023/09/09 12:26:19;;;;;;;10.95;9.77;;;;;;;;;;5039949;28;20048;-58
2023/09/09 12:28:47;;;;;;;10.65;9.55;;;;;;;;;;5038865;28;20059;-58
2023/09/09 12:31:14;;;;;;;10.90;9.80;;;;;;;;;;5052031;28;20135;-59
2023/09/09 12:33:43;;;;;;;10.20;9.10;;;;;;;;;;5063212;28;20073;-59
2023/09/09 12:36:17;;;;;;;10.80;9.25;;;;;;;;;;5053999;28;20041;-59
2023/09/09 12:38:44;;;;;;;10.63;9.10;;;;;;;;;;5059468;28;20505;-57
2023/09/09 12:41:11;;;;;;;11.23;8.48;;;;;;;;;;5065663;28;20048;-59
2023/09/09 12:43:39;;;;;;;10.93;8.82;;;;;;;;;;5069749;28;20048;-59
2023/09/09 12:46:07;;;;;;;9.82;8.85;;;;;;;;;;5059946;28;20055;-59
2023/09/09 12:48:53;;;;;;;9.82;8.43;;;;;;;;;;5064704;28;20037;-60
2023/09/09 12:51:21;;;;;;;10.02;9.02;;;;;;;;;;5048922;28;20041;-59
2023/09/09 12:53:47;;;;;;;11.15;10.05;;;;;;;;;;5056659;28;20084;-61
2023/09/09 12:56:14;;;;;;;10.00;8.80;;;;;;;;;;5058118;28;20502;-59
2023/09/09 12:58:42;;;;;;;9.88;8.88;;;;;;;;;;5049961;28;20128;-59
2023/09/09 13:01:09;;;;;;;8.85;8.05;;;;;;;;;;5045795;28;20051;-59
2023/09/09 13:03:36;;;;;;;9.18;8.27;;;;;;;;;;5051143;28;20136;-59
2023/09/09 13:06:02;;;;;;;10.00;9.00;;;;;;;;;;5051152;28;20045;-59
2023/09/09 13:08:29;;;;;;;9.68;8.57;;;;;;;;;;5059879;28;20049;-59
2023/09/09 13:10:56;;;;;;;10.63;9.52;;;;;;;;;;5052458;28;20127;-59
2023/09/09 13:13:23;;;;;;;9.50;8.60;;;;;;;;;;5058127;28;20053;-60
2023/09/09 13:18:27;;;;;;;9.82;8.90;;;;;;;;;;5410585;23;20051;-85
2023/09/09 13:20:54;;;;;;;10.23;9.20;;;;;;;;;;4950512;28;20487;-86
2023/09/09 13:23:25;;;;;;;10.18;9.18;;;;;;;;;;4955815;29;20082;-85
2023/09/09 13:25:52;;;;;;;9.57;8.68;;;;;;;;;;4947660;29;20070;-86
2023/09/09 13:28:18;;;;;;;10.48;9.38;;;;;;;;;;4959584;28;20047;-85
2023/09/09 13:30:45;;;;;;;10.35;8.38;;;;;;;;;;4959143;29;20046;-85
2023/09/09 13:33:11;;;;;;;9.15;8.27;;;;;;;;;;4990258;23;20047;-82
2023/09/09 13:35:40;;;;;;;10.00;9.00;;;;;;;;;;4972855;28;20045;-82
2023/09/09 13:38:07;;;;;;;10.47;9.37;;;;;;;;;;4971803;28;20085;-81
2023/09/09 13:40:34;;;;;;;9.95;8.95;;;;;;;;;;4974020;28;20328;-81
2023/09/09 13:43:00;;;;;;;11.73;10.43;;;;;;;;;;4974421;28;20049;-80
2023/09/09 13:45:27;;;;;;;9.43;8.45;;;;;;;;;;4970841;28;20059;-81
2023/09/09 13:47:54;;;;;;;12.38;10.57;;;;;;;;;;4971172;28;20049;-80
2023/09/09 13:50:20;;;;;;;10.73;9.63;;;;;;;;;;4968921;28;20440;-82
2023/09/09 13:52:48;;;;;;;11.57;10.40;;;;;;;;;;4971602;28;20144;-82
2023/09/09 13:55:16;;;;;;;13.25;11.85;;;;;;;;;;4972911;28;20055;-82
2023/09/09 13:57:42;;;;;;;10.20;9.20;;;;;;;;;;4979448;28;20050;-82
2023/09/09 14:00:10;;;;;;;10.20;9.10;;;;;;;;;;4970829;28;20561;-82
2023/09/09 14:02:36;;;;;;;10.20;8.93;;;;;;;;;;4973888;28;20051;-82
2023/09/09 14:05:03;;;;;;;9.98;8.98;;;;;;;;;;4978736;28;20142;-82
2023/09/09 14:07:29;;;;;;;9.35;8.38;;;;;;;;;;4975684;28;20122;-82
2023/09/09 14:09:57;;;;;;;9.10;8.20;;;;;;;;;;4972507;28;20424;-81
2023/09/09 14:12:24;;;;;;;8.70;7.90;;;;;;;;;;4978471;28;20053;-80
2023/09/09 14:14:50;;;;;;;11.68;10.68;;;;;;;;;;4972685;28;20053;-80
2023/09/09 14:17:17;;;;;;;9.30;8.40;;;;;;;;;;4980276;28;20046;-80
2023/09/09 14:19:44;;;;;;;9.68;8.63;;;;;;;;;;4980980;28;20129;-80
2023/09/09 14:22:11;;;;;;;10.85;8.75;;;;;;;;;;4980512;28;20134;-82
2023/09/09 14:24:37;;;;;;;9.18;8.38;;;;;;;;;;4981752;28;20047;-82
2023/09/09 14:27:06;;;;;;;9.40;8.05;;;;;;;;;;4977620;28;20099;-82